Time;durP1;ratioP1;P1;durP2;ratioP2;P2;SDS_P1;SDS_P2;PMS_P1;PMS_P2;Temp;Humidity;BMP_temperature;BMP_pressure;BME280_temperature;BME280_humidity;BME280_pressure;Samples;Min_cycle;Max_cycle;Signal;HPM_P1;HPM_P2
2022/07/25 00:00:29;;;;;;;;;;;20.00;99.90;;;;;;5071379;28;19934;-81
2022/07/25 00:03:09;;;;;;;;;;;20.10;99.90;;;;;;5061436;28;19920;-81
2022/07/25 00:05:51;;;;;;;;;;;20.00;99.90;;;;;;5060164;28;19948;-81
2022/07/25 00:08:26;;;;;;;;;;;20.10;99.90;;;;;;5063271;28;19971;-80
2022/07/25 00:11:02;;;;;;;;;;;20.10;99.90;;;;;;5066363;28;19951;-79
2022/07/25 00:13:41;;;;;;;;;;;20.10;99.90;;;;;;5072584;28;19947;-80
2022/07/25 00:16:16;;;;;;;;;;;20.20;99.90;;;;;;5063172;28;20387;-80
2022/07/25 00:22:03;;;;;;;;;;;20.20;99.90;;;;;;5069540;28;19927;-78
2022/07/25 00:24:34;;;;;;;;;;;20.20;99.90;;;;;;5059129;28;19920;-79
2022/07/25 00:27:11;;;;;;;;;;;20.20;99.90;;;;;;5033977;28;19921;-78
2022/07/25 00:29:42;;;;;;;;;;;20.30;99.90;;;;;;5064321;28;19986;-78
2022/07/25 00:32:21;;;;;;;;;;;18.90;99.90;;;;;;5075786;28;19991;-78
2022/07/25 00:34:56;;;;;;;;;;;20.30;99.90;;;;;;5076698;28;19985;-79
2022/07/25 00:37:27;;;;;;;;;;;20.30;99.90;;;;;;5075456;28;20014;-79
2022/07/25 00:40:04;;;;;;;;;;;20.40;99.90;;;;;;5064940;28;19929;-79
2022/07/25 00:42:51;;;;;;;;;;;20.40;99.90;;;;;;5082560;28;19992;-79
2022/07/25 00:45:44;;;;;;;;;;;20.40;99.90;;;;;;5075238;28;19925;-79
2022/07/25 00:48:15;;;;;;;;;;;20.40;99.90;;;;;;5066141;28;19971;-77
2022/07/25 00:53:39;;;;;;;;;;;20.40;99.90;;;;;;5061318;28;19959;-77
2022/07/25 00:56:13;;;;;;;;;;;20.40;99.90;;;;;;5057593;28;19928;-78
2022/07/25 00:58:41;;;;;;;;;;;20.30;99.90;;;;;;5053976;28;19932;-78
2022/07/25 01:01:31;;;;;;;;;;;20.30;99.90;;;;;;5051896;28;19929;-78
2022/07/25 01:04:06;;;;;;;;;;;20.30;99.90;;;;;;5061650;28;19977;-78
2022/07/25 01:06:37;;;;;;;;;;;20.20;99.90;;;;;;5061237;28;20026;-79
2022/07/25 01:09:30;;;;;;;;;;;20.10;99.90;;;;;;5062584;28;19920;-85
2022/07/25 01:12:10;;;;;;;;;;;20.00;99.90;;;;;;5080102;28;19990;-82
2022/07/25 01:15:06;;;;;;;;;;;20.00;99.90;;;;;;5061082;28;19978;-83
2022/07/25 01:20:35;;;;;;;;;;;19.90;99.90;;;;;;5054462;28;20433;-84
2022/07/25 01:23:15;;;;;;;;;;;19.80;99.90;;;;;;5055531;28;19921;-83
2022/07/25 01:25:58;;;;;;;;;;;19.80;99.90;;;;;;5081456;28;19927;-83
2022/07/25 01:28:37;;;;;;;;;;;19.70;99.90;;;;;;5057422;28;19929;-82
2022/07/25 01:34:09;;;;;;;;;;;19.60;99.90;;;;;;5069312;28;20629;-78
2022/07/25 01:36:43;;;;;;;;;;;19.60;99.90;;;;;;5065638;28;19925;-77
2022/07/25 01:39:18;;;;;;;;;;;19.50;99.90;;;;;;5058023;28;19924;-77
2022/07/25 01:44:58;;;;;;;;;;;19.40;99.90;;;;;;4650335;27;12729230;-77
2022/07/25 01:47:34;;;;;;;;;;;19.40;99.90;;;;;;5085058;28;19929;-78
2022/07/25 01:50:02;;;;;;;;;;;19.40;99.90;;;;;;5063696;28;19924;-78
2022/07/25 01:52:40;;;;;;;;;;;19.30;99.90;;;;;;5068747;28;19929;-79
2022/07/25 01:55:20;;;;;;;;;;;19.30;99.90;;;;;;5090356;28;19933;-81
2022/07/25 01:57:52;;;;;;;;;;;19.30;99.90;;;;;;5067690;28;20019;-78
2022/07/25 02:00:38;;;;;;;;;;;19.20;99.90;;;;;;5062985;28;19924;-78
2022/07/25 02:03:31;;;;;;;;;;;19.20;99.90;;;;;;5047937;28;19933;-78
2022/07/25 02:06:03;;;;;;;;;;;19.20;99.90;;;;;;5056340;28;19925;-79
2022/07/25 02:11:32;;;;;;;;;;;19.10;99.90;;;;;;5059699;28;19931;-78
2022/07/25 02:14:08;;;;;;;;;;;19.00;99.90;;;;;;5070572;28;19950;-79
2022/07/25 02:16:46;;;;;;;;;;;19.00;99.90;;;;;;5079023;28;19935;-78
2022/07/25 02:19:18;;;;;;;;;;;19.00;99.90;;;;;;5070713;28;19986;-79
2022/07/25 02:21:52;;;;;;;;;;;19.00;99.90;;;;;;5087542;28;19984;-79
2022/07/25 02:24:25;;;;;;;;;;;19.00;99.90;;;;;;5057663;28;19969;-80
2022/07/25 02:26:56;;;;;;;;;;;19.00;99.90;;;;;;5089118;28;19939;-80
2022/07/25 02:29:27;;;;;;;;;;;19.00;99.90;;;;;;5063905;28;20015;-80
2022/07/25 02:31:58;;;;;;;;;;;19.00;99.90;;;;;;5086325;28;20020;-79
2022/07/25 02:34:33;;;;;;;;;;;19.00;99.90;;;;;;5070778;28;20023;-80
2022/07/25 02:37:05;;;;;;;;;;;19.00;99.90;;;;;;5061612;28;19924;-80
2022/07/25 02:39:48;;;;;;;;;;;19.00;99.90;;;;;;5076022;28;19964;-80
2022/07/25 02:44:51;;;;;;;;;;;19.00;99.90;;;;;;4987976;28;19930;-77
2022/07/25 02:47:19;;;;;;;;;;;19.10;99.90;;;;;;4976943;28;20417;-77
2022/07/25 02:49:46;;;;;;;;;;;19.00;99.90;;;;;;4999304;28;19933;-78
2022/07/25 02:52:12;;;;;;;;;;;19.00;99.90;;;;;;4991267;28;19926;-76
2022/07/25 02:54:39;;;;;;;;;;;19.00;99.90;;;;;;4998420;28;19952;-78
2022/07/25 02:57:05;;;;;;;;;;;19.00;99.90;;;;;;4991107;28;20445;-74
2022/07/25 02:59:32;;;;;;;;;;;19.00;99.90;;;;;;4985922;28;20379;-74
2022/07/25 03:01:59;;;;;;;;;;;19.00;99.90;;;;;;4980892;28;19938;-74
2022/07/25 03:04:27;;;;;;;;;;;19.00;99.90;;;;;;4981657;28;19953;-74
2022/07/25 03:06:54;;;;;;;;;;;19.00;99.90;;;;;;4982071;28;19930;-74
2022/07/25 03:09:20;;;;;;;;;;;19.00;99.90;;;;;;4980334;28;19925;-74
2022/07/25 03:11:49;;;;;;;;;;;19.00;99.90;;;;;;4974192;28;20355;-73
2022/07/25 03:14:15;;;;;;;;;;;19.00;99.90;;;;;;4984677;28;20132;-74
2022/07/25 03:16:42;;;;;;;;;;;19.00;99.90;;;;;;4988264;28;19926;-74
2022/07/25 03:19:10;;;;;;;;;;;19.00;99.90;;;;;;4984836;28;19930;-74
2022/07/25 03:21:38;;;;;;;;;;;19.00;99.90;;;;;;4987133;28;19926;-74
2022/07/25 03:24:05;;;;;;;;;;;19.00;99.90;;;;;;4963984;28;19938;-74
2022/07/25 03:26:32;;;;;;;;;;;19.00;99.90;;;;;;4987902;28;20036;-74
2022/07/25 03:28:59;;;;;;;;;;;19.10;99.90;;;;;;4986191;28;19940;-74
2022/07/25 03:31:25;;;;;;;;;;;19.30;99.90;;;;;;4987660;28;19937;-74
2022/07/25 03:33:52;;;;;;;;;;;19.20;99.90;;;;;;4984648;28;19929;-74
2022/07/25 03:36:19;;;;;;;;;;;19.20;99.90;;;;;;4988254;28;19926;-74
2022/07/25 03:38:47;;;;;;;;;;;19.20;99.90;;;;;;4987869;28;19988;-75
2022/07/25 03:41:13;;;;;;;;;;;19.30;99.90;;;;;;4980132;28;20449;-75
2022/07/25 03:43:40;;;;;;;;;;;19.30;99.90;;;;;;4963664;28;19933;-75
2022/07/25 03:46:07;;;;;;;;;;;19.40;99.90;;;;;;4978019;28;19933;-75
2022/07/25 03:48:33;;;;;;;;;;;19.40;99.90;;;;;;4985049;28;19961;-74
2022/07/25 03:51:00;;;;;;;;;;;19.40;99.90;;;;;;4988394;28;19930;-73
2022/07/25 03:53:27;;;;;;;;;;;19.40;99.90;;;;;;4982607;28;19938;-75
2022/07/25 03:55:55;;;;;;;;;;;19.50;99.90;;;;;;4988805;28;19976;-74
2022/07/25 03:58:22;;;;;;;;;;;19.50;99.90;;;;;;4971004;28;19934;-75
2022/07/25 04:00:48;;;;;;;;;;;19.60;99.90;;;;;;4961110;28;19930;-75
2022/07/25 04:03:15;;;;;;;;;;;19.60;99.90;;;;;;4985268;28;19926;-74
2022/07/25 04:05:42;;;;;;;;;;;19.80;99.90;;;;;;4988844;28;19929;-75
2022/07/25 04:08:09;;;;;;;;;;;19.80;99.90;;;;;;4967731;28;19929;-74
2022/07/25 04:10:36;;;;;;;;;;;20.00;99.90;;;;;;4988319;28;20330;-75
2022/07/25 04:13:04;;;;;;;;;;;20.10;99.90;;;;;;4966328;28;20012;-75
2022/07/25 04:15:31;;;;;;;;;;;20.20;99.90;;;;;;4988287;28;19938;-74
2022/07/25 04:17:57;;;;;;;;;;;20.30;99.90;;;;;;4987468;28;19930;-74
2022/07/25 04:20:24;;;;;;;;;;;20.40;99.90;;;;;;4978990;28;19930;-74
2022/07/25 04:22:51;;;;;;;;;;;20.50;99.90;;;;;;4985108;28;19934;-75
2022/07/25 04:25:17;;;;;;;;;;;20.60;99.90;;;;;;4983883;28;19976;-75
2022/07/25 04:27:44;;;;;;;;;;;20.80;99.90;;;;;;4987723;28;20387;-75
2022/07/25 04:30:13;;;;;;;;;;;20.90;99.90;;;;;;4980908;28;19930;-74
2022/07/25 04:32:41;;;;;;;;;;;21.00;99.90;;;;;;4985830;28;20212;-74
2022/07/25 04:35:08;;;;;;;;;;;21.10;99.90;;;;;;4980188;28;19981;-73
2022/07/25 04:37:36;;;;;;;;;;;21.20;99.90;;;;;;4964989;28;19929;-76
2022/07/25 04:40:03;;;;;;;;;;;21.30;99.90;;;;;;4984235;28;19933;-74
2022/07/25 04:42:31;;;;;;;;;;;21.40;99.90;;;;;;4990799;28;19932;-74
2022/07/25 04:44:57;;;;;;;;;;;21.50;99.90;;;;;;4988685;28;19925;-74
2022/07/25 04:47:26;;;;;;;;;;;21.60;99.90;;;;;;4988543;28;19965;-74
2022/07/25 04:49:52;;;;;;;;;;;21.70;99.90;;;;;;4979653;28;19965;-74
2022/07/25 04:52:19;;;;;;;;;;;21.70;99.90;;;;;;4979019;28;20391;-74
2022/07/25 04:54:46;;;;;;;;;;;21.80;99.90;;;;;;4984944;28;20401;-74
2022/07/25 04:57:13;;;;;;;;;;;21.80;99.90;;;;;;4980659;28;20020;-75
2022/07/25 04:59:40;;;;;;;;;;;21.90;99.90;;;;;;4963780;28;19984;-75
2022/07/25 05:02:06;;;;;;;;;;;22.00;99.90;;;;;;4983583;28;20372;-74
2022/07/25 05:04:34;;;;;;;;;;;22.10;99.90;;;;;;4978219;28;20273;-75
2022/07/25 05:07:01;;;;;;;;;;;22.10;99.90;;;;;;4987836;28;20016;-75
2022/07/25 05:09:28;;;;;;;;;;;22.20;99.90;;;;;;4988628;28;19926;-74
2022/07/25 05:11:55;;;;;;;;;;;22.30;99.90;;;;;;4984073;28;20032;-74
2022/07/25 05:14:22;;;;;;;;;;;22.30;99.90;;;;;;4984420;28;19961;-74
2022/07/25 05:16:49;;;;;;;;;;;22.50;99.90;;;;;;4983066;28;20400;-75
2022/07/25 05:19:16;;;;;;;;;;;22.60;99.90;;;;;;4981299;28;19929;-73
2022/07/25 05:21:44;;;;;;;;;;;22.70;99.90;;;;;;4988271;28;19976;-76
2022/07/25 05:24:11;;;;;;;;;;;22.90;99.90;;;;;;4982753;28;19926;-74
2022/07/25 05:26:38;;;;;;;;;;;23.00;99.90;;;;;;4965666;28;19930;-74
2022/07/25 05:29:05;;;;;;;;;;;23.10;99.90;;;;;;4987310;28;19980;-74
2022/07/25 05:31:31;;;;;;;;;;;23.10;99.90;;;;;;4961869;28;19936;-74
2022/07/25 05:33:58;;;;;;;;;;;23.20;99.90;;;;;;4965802;28;19936;-74
2022/07/25 05:36:25;;;;;;;;;;;23.40;99.90;;;;;;4984547;28;20414;-75
2022/07/25 05:38:53;;;;;;;;;;;23.40;99.90;;;;;;4983147;28;20421;-75
2022/07/25 05:41:19;;;;;;;;;;;23.50;99.90;;;;;;4986820;28;19980;-74
2022/07/25 05:43:47;;;;;;;;;;;23.60;99.90;;;;;;4969200;28;19934;-74
2022/07/25 05:46:14;;;;;;;;;;;23.60;99.90;;;;;;4983056;28;19953;-76
2022/07/25 05:48:41;;;;;;;;;;;23.80;99.90;;;;;;4984880;28;19968;-75
2022/07/25 05:51:08;;;;;;;;;;;24.90;99.90;;;;;;4979615;28;19929;-75
2022/07/25 05:53:34;;;;;;;;;;;24.10;99.90;;;;;;4976546;28;20401;-75
2022/07/25 05:56:03;;;;;;;;;;;24.50;99.90;;;;;;4978492;28;19956;-75
2022/07/25 05:58:29;;;;;;;;;;;24.60;99.90;;;;;;4967031;28;19938;-75
2022/07/25 06:00:56;;;;;;;;;;;24.60;99.90;;;;;;4980295;28;19929;-75
2022/07/25 06:03:26;;;;;;;;;;;24.60;99.90;;;;;;4981173;28;19953;-75
2022/07/25 06:05:54;;;;;;;;;;;24.70;99.90;;;;;;4965957;28;19934;-74
2022/07/25 06:08:21;;;;;;;;;;;24.70;99.90;;;;;;4984794;28;19930;-75
2022/07/25 06:10:47;;;;;;;;;;;24.70;99.90;;;;;;4981925;28;19926;-75
2022/07/25 06:13:15;;;;;;;;;;;24.70;99.90;;;;;;4960524;28;19941;-77
2022/07/25 06:15:42;;;;;;;;;;;24.60;99.90;;;;;;4980900;28;19953;-77
2022/07/25 06:18:09;;;;;;;;;;;24.60;99.90;;;;;;4984291;28;19930;-77
2022/07/25 06:20:35;;;;;;;;;;;25.30;99.90;;;;;;4981635;28;20374;-78
2022/07/25 06:23:03;;;;;;;;;;;26.50;99.90;;;;;;4978155;28;19973;-78
2022/07/25 06:25:30;;;;;;;;;;;27.50;99.90;;;;;;4977824;28;19937;-79
2022/07/25 06:27:57;;;;;;;;;;;28.50;99.90;;;;;;4984276;28;20002;-78
2022/07/25 06:30:25;;;;;;;;;;;29.50;99.90;;;;;;4982880;28;19926;-77
2022/07/25 06:32:51;;;;;;;;;;;30.40;99.90;;;;;;4965241;28;20307;-77
2022/07/25 06:35:18;;;;;;;;;;;31.70;99.90;;;;;;4979188;28;19925;-79
2022/07/25 06:37:45;;;;;;;;;;;32.90;99.90;;;;;;4988000;28;19933;-78
2022/07/25 06:40:13;;;;;;;;;;;33.80;99.90;;;;;;4971172;28;19954;-79
2022/07/25 06:42:40;;;;;;;;;;;34.90;99.90;;;;;;4984998;28;19936;-78
2022/07/25 06:45:08;;;;;;;;;;;35.80;99.90;;;;;;4982476;28;19937;-78
2022/07/25 06:47:36;;;;;;;;;;;35.60;95.70;;;;;;4987630;28;20016;-80
2022/07/25 06:50:05;;;;;;;;;;;35.00;94.30;;;;;;4987373;28;19930;-78
2022/07/25 06:52:31;;;;;;;;;;;34.10;93.20;;;;;;4982181;28;19930;-79
2022/07/25 06:54:58;;;;;;;;;;;33.60;93.40;;;;;;4985182;28;19930;-78
2022/07/25 06:57:25;;;;;;;;;;;34.00;92.20;;;;;;4976021;28;21014;-78
2022/07/25 06:59:51;;;;;;;;;;;34.00;91.90;;;;;;4986212;28;20493;-78
2022/07/25 07:02:18;;;;;;;;;;;33.80;91.20;;;;;;4969800;28;19929;-78
2022/07/25 07:04:46;;;;;;;;;;;34.40;92.10;;;;;;4984508;28;20283;-79
2022/07/25 07:07:13;;;;;;;;;;;34.40;90.70;;;;;;4985311;28;19930;-79
2022/07/25 07:09:40;;;;;;;;;;;34.80;90.30;;;;;;4982714;28;19930;-79
2022/07/25 07:12:07;;;;;;;;;;;35.30;89.70;;;;;;4983078;28;19930;-78
2022/07/25 07:14:34;;;;;;;;;;;36.20;87.10;;;;;;4982016;28;19933;-79
2022/07/25 07:17:00;;;;;;;;;;;36.20;86.50;;;;;;4987914;28;20331;-77
2022/07/25 07:19:27;;;;;;;;;;;36.50;82.90;;;;;;4987576;28;19930;-78
2022/07/25 07:21:55;;;;;;;;;;;36.40;81.90;;;;;;4980020;28;19936;-77
2022/07/25 07:24:22;;;;;;;;;;;36.40;82.60;;;;;;4968740;28;19936;-78
2022/07/25 07:26:48;;;;;;;;;;;37.00;80.90;;;;;;4983847;28;19975;-77
2022/07/25 07:29:15;;;;;;;;;;;37.60;80.20;;;;;;4977096;28;20515;-78
2022/07/25 07:31:42;;;;;;;;;;;37.70;77.70;;;;;;4974965;28;20409;-77
2022/07/25 07:34:10;;;;;;;;;;;37.50;74.50;;;;;;4980534;28;19927;-77
2022/07/25 07:36:36;;;;;;;;;;;37.30;74.90;;;;;;4982750;28;19965;-77
2022/07/25 07:39:05;;;;;;;;;;;37.20;75.30;;;;;;4976747;28;20168;-77
2022/07/25 07:41:32;;;;;;;;;;;37.40;75.20;;;;;;4982098;28;19965;-78
2022/07/25 07:43:59;;;;;;;;;;;37.80;72.80;;;;;;4987232;28;19930;-78
2022/07/25 07:46:26;;;;;;;;;;;37.80;71.60;;;;;;4978880;28;19953;-77
2022/07/25 07:48:53;;;;;;;;;;;37.70;72.40;;;;;;4957997;28;19934;-79
2022/07/25 07:51:20;;;;;;;;;;;37.40;70.60;;;;;;4979618;28;19930;-78
2022/07/25 07:56:32;;;;;;;;;;;36.00;71.30;;;;;;4961408;28;20012;-77
2022/07/25 07:58:59;;;;;;;;;;;35.50;72.60;;;;;;4967541;28;20400;-77
2022/07/25 08:01:26;;;;;;;;;;;35.00;72.90;;;;;;4987551;28;19929;-79
2022/07/25 08:03:53;;;;;;;;;;;34.50;73.60;;;;;;4986109;28;20000;-76
2022/07/25 08:06:19;;;;;;;;;;;34.20;73.90;;;;;;4982824;28;19991;-77
2022/07/25 08:08:46;;;;;;;;;;;33.90;74.30;;;;;;4986250;28;19930;-77
2022/07/25 08:11:13;;;;;;;;;;;32.10;74.10;;;;;;4986766;28;20341;-77
2022/07/25 08:13:41;;;;;;;;;;;33.50;75.70;;;;;;4981703;28;19926;-77
2022/07/25 08:16:10;;;;;;;;;;;33.70;76.00;;;;;;4989194;28;19933;-77
2022/07/25 08:18:37;;;;;;;;;;;33.90;76.60;;;;;;4987091;28;20000;-77
2022/07/25 08:21:05;;;;;;;;;;;34.20;75.20;;;;;;4988449;28;19926;-77
2022/07/25 08:23:33;;;;;;;;;;;34.20;74.60;;;;;;4980648;28;19926;-77
2022/07/25 08:26:00;;;;;;;;;;;33.70;74.80;;;;;;4987077;28;19929;-77
2022/07/25 08:28:27;;;;;;;;;;;33.60;75.60;;;;;;4980945;28;20399;-77
2022/07/25 08:30:55;;;;;;;;;;;33.20;75.10;;;;;;4979752;28;19930;-77
2022/07/25 08:33:22;;;;;;;;;;;32.90;76.10;;;;;;4987201;28;20293;-78
2022/07/25 08:35:50;;;;;;;;;;;32.50;75.30;;;;;;4986426;28;20243;-77
2022/07/25 08:38:17;;;;;;;;;;;32.40;76.00;;;;;;4983280;28;19930;-77
2022/07/25 08:40:44;;;;;;;;;;;32.00;76.30;;;;;;4970755;28;19930;-77
2022/07/25 08:43:11;;;;;;;;;;;31.70;77.00;;;;;;4983509;28;19930;-74
2022/07/25 08:45:43;;;;;;;;;;;31.20;77.00;;;;;;4983899;28;20048;-74
2022/07/25 08:48:11;;;;;;;;;;;31.10;78.60;;;;;;4980119;28;19934;-74
2022/07/25 08:50:38;;;;;;;;;;;31.00;79.50;;;;;;4987582;28;19926;-74
2022/07/25 08:53:05;;;;;;;;;;;30.80;79.80;;;;;;4983718;28;20447;-74
2022/07/25 08:55:32;;;;;;;;;;;30.70;79.10;;;;;;4988018;28;19930;-74
2022/07/25 08:57:59;;;;;;;;;;;30.50;80.50;;;;;;4986278;28;19988;-74
2022/07/25 09:00:27;;;;;;;;;;;30.40;82.30;;;;;;4984395;28;19934;-74
2022/07/25 09:02:54;;;;;;;;;;;30.70;82.80;;;;;;4982135;28;20000;-74
2022/07/25 09:05:23;;;;;;;;;;;31.80;82.80;;;;;;4988287;28;19929;-74
2022/07/25 09:07:50;;;;;;;;;;;32.20;81.70;;;;;;4985508;28;19997;-75
2022/07/25 09:10:17;;;;;;;;;;;32.90;80.20;;;;;;4981076;28;19937;-74
2022/07/25 09:12:50;;;;;;;;;;;33.60;79.20;;;;;;4985928;28;19930;-75
2022/07/25 09:15:23;;;;;;;;;;;34.00;77.30;;;;;;4985670;28;19934;-75
2022/07/25 09:17:49;;;;;;;;;;;34.20;75.90;;;;;;4980609;28;20335;-74
2022/07/25 09:20:16;;;;;;;;;;;34.30;75.00;;;;;;4982736;28;20071;-74
2022/07/25 09:22:45;;;;;;;;;;;34.20;74.90;;;;;;4983503;28;19968;-74
2022/07/25 09:25:21;;;;;;;;;;;33.90;73.00;;;;;;4987300;28;19937;-75
2022/07/25 09:27:48;;;;;;;;;;;33.90;74.20;;;;;;4982214;28;19929;-75
2022/07/25 09:30:15;;;;;;;;;;;33.50;75.30;;;;;;4977433;28;19933;-74
2022/07/25 09:32:42;;;;;;;;;;;33.30;76.00;;;;;;4981858;28;19933;-74
2022/07/25 09:35:09;;;;;;;;;;;33.30;76.90;;;;;;4982192;28;20321;-74
2022/07/25 09:37:36;;;;;;;;;;;33.50;76.90;;;;;;4983537;28;20927;-74
2022/07/25 09:40:11;;;;;;;;;;;33.70;75.50;;;;;;4986723;28;19952;-74
2022/07/25 09:42:38;;;;;;;;;;;33.80;74.90;;;;;;4981735;28;20423;-74
2022/07/25 09:45:06;;;;;;;;;;;33.70;73.00;;;;;;4981610;28;19953;-74
2022/07/25 09:47:34;;;;;;;;;;;33.60;73.60;;;;;;4981336;28;20009;-74
2022/07/25 09:50:01;;;;;;;;;;;33.10;73.80;;;;;;4986349;28;19930;-74
2022/07/25 09:52:28;;;;;;;;;;;32.60;74.70;;;;;;4981978;28;20366;-74
2022/07/25 09:54:54;;;;;;;;;;;32.30;75.80;;;;;;4980985;28;19930;-74
2022/07/25 09:57:24;;;;;;;;;;;31.90;76.60;;;;;;4965114;28;20322;-74
2022/07/25 09:59:52;;;;;;;;;;;31.50;77.20;;;;;;4986868;28;20379;-74
2022/07/25 10:02:26;;;;;;;;;;;31.10;77.50;;;;;;4981931;28;19934;-74
2022/07/25 10:04:59;;;;;;;;;;;30.50;77.30;;;;;;4984090;28;19936;-74
2022/07/25 10:07:26;;;;;;;;;;;30.50;79.10;;;;;;4990212;28;19973;-75
2022/07/25 10:09:54;;;;;;;;;;;30.10;77.60;;;;;;4988492;28;19930;-75
2022/07/25 10:12:23;;;;;;;;;;;29.80;78.50;;;;;;4987507;28;19926;-74
2022/07/25 10:15:04;;;;;;;;;;;29.40;79.30;;;;;;4970714;28;19929;-75
2022/07/25 10:17:30;;;;;;;;;;;29.40;80.10;;;;;;4985460;28;19933;-75
2022/07/25 10:20:00;;;;;;;;;;;29.20;80.10;;;;;;4983570;28;20057;-74
2022/07/25 10:22:35;;;;;;;;;;;29.20;81.10;;;;;;4959797;28;19969;-74
2022/07/25 10:25:07;;;;;;;;;;;29.40;81.00;;;;;;4985196;28;20407;-75
2022/07/25 10:27:40;;;;;;;;;;;29.50;81.90;;;;;;4985445;28;19976;-74
2022/07/25 10:30:10;;;;;;;;;;;29.50;81.40;;;;;;4990613;28;19929;-75
2022/07/25 10:32:37;;;;;;;;;;;29.80;81.20;;;;;;4990254;28;19976;-75
2022/07/25 10:35:11;;;;;;;;;;;30.00;80.20;;;;;;4989684;28;19930;-75
2022/07/25 10:37:39;;;;;;;;;;;30.00;80.00;;;;;;4983992;28;19981;-75
2022/07/25 10:40:07;;;;;;;;;;;29.90;79.20;;;;;;4973162;28;19940;-75
2022/07/25 10:42:34;;;;;;;;;;;29.80;79.60;;;;;;4966676;28;20412;-74
2022/07/25 10:45:04;;;;;;;;;;;29.80;78.80;;;;;;4988214;28;20737;-75
2022/07/25 10:47:36;;;;;;;;;;;29.80;78.90;;;;;;4982964;28;20327;-75
2022/07/25 10:50:03;;;;;;;;;;;29.90;79.90;;;;;;4988148;28;19933;-75
2022/07/25 10:52:30;;;;;;;;;;;30.00;79.20;;;;;;4985457;28;19941;-75
2022/07/25 10:54:57;;;;;;;;;;;30.00;79.50;;;;;;4968009;28;19926;-75
2022/07/25 10:57:24;;;;;;;;;;;29.90;76.90;;;;;;4986413;28;19929;-75
2022/07/25 10:59:51;;;;;;;;;;;29.90;77.00;;;;;;4989999;28;20023;-75
2022/07/25 11:02:19;;;;;;;;;;;29.80;77.20;;;;;;4987847;28;19929;-75
2022/07/25 11:05:01;;;;;;;;;;;29.50;77.50;;;;;;4990505;28;19937;-76
2022/07/25 11:07:34;;;;;;;;;;;29.50;78.20;;;;;;4987930;28;20383;-75
2022/07/25 11:10:03;;;;;;;;;;;29.40;79.30;;;;;;4981024;28;19929;-78
2022/07/25 11:12:31;;;;;;;;;;;29.40;79.70;;;;;;4987283;28;19934;-78
2022/07/25 11:15:00;;;;;;;;;;;29.50;79.80;;;;;;4985972;28;19937;-80
2022/07/25 11:17:28;;;;;;;;;;;29.50;79.60;;;;;;4966007;28;19934;-79
2022/07/25 11:19:56;;;;;;;;;;;29.60;79.90;;;;;;4990172;28;19936;-79
2022/07/25 11:22:23;;;;;;;;;;;29.60;80.10;;;;;;4968602;28;19930;-77
2022/07/25 11:24:49;;;;;;;;;;;29.70;80.10;;;;;;4981381;28;19941;-75
2022/07/25 11:27:21;;;;;;;;;;;29.80;80.70;;;;;;4983341;28;20015;-75
2022/07/25 11:29:47;;;;;;;;;;;29.90;80.50;;;;;;4967495;28;19945;-75
2022/07/25 11:32:14;;;;;;;;;;;29.90;81.10;;;;;;4989409;28;20403;-75
2022/07/25 11:34:43;;;;;;;;;;;29.80;80.30;;;;;;4981136;28;19933;-74
2022/07/25 11:37:12;;;;;;;;;;;29.80;81.00;;;;;;4986908;28;19933;-75
2022/07/25 11:39:40;;;;;;;;;;;29.80;81.60;;;;;;4986534;28;20417;-75
2022/07/25 11:42:08;;;;;;;;;;;30.20;82.10;;;;;;4988880;28;20399;-75
2022/07/25 11:44:36;;;;;;;;;;;30.30;81.40;;;;;;4968070;28;19930;-76
2022/07/25 11:47:03;;;;;;;;;;;30.30;81.90;;;;;;4987411;28;20449;-76
2022/07/25 11:49:30;;;;;;;;;;;30.70;81.40;;;;;;4990253;28;19926;-76
2022/07/25 11:51:58;;;;;;;;;;;30.90;79.90;;;;;;4989883;28;20013;-75
2022/07/25 11:54:25;;;;;;;;;;;31.00;80.40;;;;;;4990044;28;19934;-76
2022/07/25 11:56:52;;;;;;;;;;;31.10;79.40;;;;;;4989175;28;19936;-75
2022/07/25 11:59:18;;;;;;;;;;;31.20;79.10;;;;;;4990010;28;19934;-75
2022/07/25 12:01:46;;;;;;;;;;;31.30;79.60;;;;;;4990055;28;19930;-75
2022/07/25 12:04:14;;;;;;;;;;;31.40;80.10;;;;;;4989354;28;19930;-76
2022/07/25 12:06:41;;;;;;;;;;;31.60;79.00;;;;;;4989699;28;19938;-75
2022/07/25 12:09:13;;;;;;;;;;;31.60;79.90;;;;;;4989688;28;19940;-75
2022/07/25 12:11:39;;;;;;;;;;;31.50;80.00;;;;;;4975691;28;20399;-75
2022/07/25 12:14:06;;;;;;;;;;;31.50;80.50;;;;;;4965567;28;19984;-75
2022/07/25 12:16:33;;;;;;;;;;;31.40;80.30;;;;;;4980244;28;19930;-75
2022/07/25 12:19:00;;;;;;;;;;;31.30;81.20;;;;;;4985223;28;19930;-75
2022/07/25 12:21:27;;;;;;;;;;;31.10;80.80;;;;;;4965385;28;19926;-76
2022/07/25 12:23:53;;;;;;;;;;;31.10;81.80;;;;;;4965822;28;19992;-75
2022/07/25 12:26:22;;;;;;;;;;;31.30;81.90;;;;;;4983902;28;19930;-75
2022/07/25 12:28:48;;;;;;;;;;;31.30;81.70;;;;;;4986975;28;19930;-75
2022/07/25 12:31:15;;;;;;;;;;;31.20;81.10;;;;;;4982942;28;19934;-75
2022/07/25 12:33:42;;;;;;;;;;;31.10;81.00;;;;;;4971277;28;20399;-75
2022/07/25 12:36:11;;;;;;;;;;;31.00;81.50;;;;;;4990254;28;19926;-75
2022/07/25 12:38:38;;;;;;;;;;;30.80;82.10;;;;;;4983854;28;19934;-75
2022/07/25 12:41:05;;;;;;;;;;;30.70;82.70;;;;;;4962771;28;19926;-75
2022/07/25 12:43:33;;;;;;;;;;;30.50;83.40;;;;;;4988379;28;20044;-75
2022/07/25 12:45:59;;;;;;;;;;;30.40;83.60;;;;;;4987543;28;19991;-76
2022/07/25 12:48:26;;;;;;;;;;;30.40;85.10;;;;;;4964228;28;20288;-75
2022/07/25 12:50:53;;;;;;;;;;;30.30;85.40;;;;;;4984076;28;19932;-75
2022/07/25 12:53:19;;;;;;;;;;;30.20;86.40;;;;;;4985618;28;19929;-75
2022/07/25 12:55:46;;;;;;;;;;;30.30;86.10;;;;;;4987502;28;19926;-75
2022/07/25 12:58:13;;;;;;;;;;;30.30;86.90;;;;;;4980672;28;19937;-75
2022/07/25 13:00:42;;;;;;;;;;;30.30;87.20;;;;;;4986083;28;19936;-75
2022/07/25 13:03:09;;;;;;;;;;;30.20;87.60;;;;;;4970084;28;19930;-75
2022/07/25 13:05:35;;;;;;;;;;;30.30;86.30;;;;;;4986155;28;19930;-75
2022/07/25 13:08:03;;;;;;;;;;;30.30;87.10;;;;;;4988614;28;19953;-75
2022/07/25 13:10:30;;;;;;;;;;;30.30;86.50;;;;;;4985158;28;19977;-75
2022/07/25 13:12:57;;;;;;;;;;;30.30;86.70;;;;;;4982627;28;19948;-75
2022/07/25 13:15:27;;;;;;;;;;;30.10;85.90;;;;;;4988447;28;19933;-75
2022/07/25 13:17:55;;;;;;;;;;;30.00;86.10;;;;;;4970563;28;19926;-75
2022/07/25 13:20:21;;;;;;;;;;;30.20;86.10;;;;;;4985627;28;20240;-75
2022/07/25 13:22:48;;;;;;;;;;;30.20;86.70;;;;;;4984924;28;19933;-74
2022/07/25 13:25:15;;;;;;;;;;;30.40;84.60;;;;;;4987536;28;19934;-75
2022/07/25 13:27:41;;;;;;;;;;;30.40;84.00;;;;;;4983063;28;19930;-75
2022/07/25 13:30:08;;;;;;;;;;;30.40;84.60;;;;;;4987458;28;19940;-75
2022/07/25 13:32:36;;;;;;;;;;;30.40;84.50;;;;;;4982948;28;19959;-75
2022/07/25 13:35:04;;;;;;;;;;;30.40;84.60;;;;;;4985758;28;20028;-75
2022/07/25 13:37:31;;;;;;;;;;;30.30;84.40;;;;;;4985949;28;19937;-75
2022/07/25 13:39:58;;;;;;;;;;;30.20;84.80;;;;;;4973480;28;19941;-75
2022/07/25 13:42:25;;;;;;;;;;;30.30;85.40;;;;;;4989145;28;19957;-75
2022/07/25 13:44:51;;;;;;;;;;;30.20;83.40;;;;;;4989608;28;19926;-75
2022/07/25 13:47:18;;;;;;;;;;;30.20;84.10;;;;;;4981037;28;20254;-75
2022/07/25 13:49:45;;;;;;;;;;;30.10;84.70;;;;;;4967266;28;19929;-75
2022/07/25 13:52:13;;;;;;;;;;;30.00;85.30;;;;;;4986106;28;20395;-77
2022/07/25 13:54:40;;;;;;;;;;;29.80;84.30;;;;;;4969379;28;20322;-77
2022/07/25 13:57:08;;;;;;;;;;;29.90;84.90;;;;;;4985032;28;19998;-77
2022/07/25 13:59:34;;;;;;;;;;;29.70;83.70;;;;;;4970239;28;20042;-80
2022/07/25 14:02:01;;;;;;;;;;;29.60;85.20;;;;;;4975843;28;19941;-78
2022/07/25 14:04:29;;;;;;;;;;;29.60;84.90;;;;;;4974258;28;19981;-79
2022/07/25 14:06:55;;;;;;;;;;;29.50;85.10;;;;;;4989739;28;19930;-79
2022/07/25 14:09:23;;;;;;;;;;;29.30;85.00;;;;;;4971352;28;20425;-78
2022/07/25 14:11:50;;;;;;;;;;;29.10;85.60;;;;;;4976059;28;19970;-77
2022/07/25 14:14:17;;;;;;;;;;;28.90;86.00;;;;;;4982531;28;19930;-77
2022/07/25 14:16:44;;;;;;;;;;;28.60;86.00;;;;;;4987670;28;19930;-78
2022/07/25 14:19:11;;;;;;;;;;;28.50;87.30;;;;;;4988754;28;19945;-79
2022/07/25 14:21:38;;;;;;;;;;;28.30;87.80;;;;;;4988895;28;19926;-77
2022/07/25 14:24:08;;;;;;;;;;;28.10;88.70;;;;;;4991426;28;19930;-77
2022/07/25 14:26:37;;;;;;;;;;;28.00;88.90;;;;;;4974505;28;19948;-78
2022/07/25 14:29:05;;;;;;;;;;;28.10;89.90;;;;;;4979192;28;20452;-77
2022/07/25 14:31:32;;;;;;;;;;;28.40;90.00;;;;;;4982861;28;20033;-77
2022/07/25 14:33:58;;;;;;;;;;;28.70;88.20;;;;;;4985832;28;20666;-78
2022/07/25 14:36:25;;;;;;;;;;;28.70;88.00;;;;;;4987777;28;19934;-77
2022/07/25 14:38:52;;;;;;;;;;;28.60;88.80;;;;;;4979258;28;19953;-77
2022/07/25 14:41:18;;;;;;;;;;;28.40;89.30;;;;;;4979104;28;19948;-78
2022/07/25 14:43:47;;;;;;;;;;;28.40;89.90;;;;;;4984256;28;19937;-78
2022/07/25 14:46:14;;;;;;;;;;;28.50;89.20;;;;;;4980812;28;19930;-78
2022/07/25 14:48:43;;;;;;;;;;;28.50;89.90;;;;;;4980259;28;19929;-78